Beuningen, Netherlands
Current Conditions -  °F | °C
As of 1:25 PM on Thursday 30 Oct 2014 (Local Time) from EHVK Reporting Station
Haze Haze  
Wind Chill: 59°   Ceiling: 500
Heat Index: 59°   Visibility: 1.8mi
Dew Point: 57°   Wind: 7mph
Humidity: 94%   Direction: 160°SSE
Pressure: 30.18"   Gusts: NA
Location:  51.86°N, 5.77°E
Report Text: EHVK 301225Z AUTO 16006KT 3000 R24R/P3000 BR BKN005 OVC007 15/14 Q1022 YLO 16006KT 3000 BR BKN006 BKN150 BECMG 4000 BR SCT007 BKN150
Loading
Personal Weather Stations






























Interactive Weather Map
Tropical Storm Tracking
New forecast layout! Learn more

10-Day Weather Forecast

Advertisements
Track Severe Weather on mobile